Kansas City, Missouri
Current Conditions -  °F | °C
As of 1:54 AM on Sunday 26 Oct 2014 (Local Time) from KMKC Reporting Station
Clear Clear  
Wind Chill: 59°   Ceiling: Unl
Heat Index: 59°   Visibility: 10mi
Dew Point: 50°   Wind: 5mph
Humidity: 72%   Direction: 70°ENE
Pressure: 29.98"   Gusts: NA
Location:  39.1°N, 94.58°W
Report Text: KMKC 260654Z 07004KT 10SM CLR 15/10 A2998 RMK AO2 SLP148 T01500100
Loading
Personal Weather Stations






























Interactive Weather Map
Tropical Storm Tracking
New forecast layout! Learn more

10-Day Weather Forecast

Advertisements
Track Severe Weather on mobile